Airfield :
LOGIN :

Register | Disclaimer

   EN    FR    IT 

 










Legend :    VFR   Marginal VFR   IFR   Intensive IFR   Very Intensive IFR
Visi :
Ceiling :
>= 8 km
>= 3000ft
5 to 8 km
1000 to 3000 ft
1500m to 5 km
500 to 1000 ft
800 to 1500m
200 to 500 ft
< 800m
< 200 ft
Symbols :   Thunderstorms  Fog  Heavy snow  Heavy precipitations  Wind > 20 kt
SIGMETs :     Misc.  Thunderstorms  Icing  Turbulence  Mountain Waves  Volcanic Ashes






- Airport Elevation : 1 ft


EGCK - Caernarfon

CURRENT METAR :
  • 240620Z AUTO 16003KT 110V170 9999 OVC009/// 07/06 Q1019

EXPIRED METARs :
  • 240550Z AUTO 12004KT 080V170 9999 OVC010/// 06/05 Q1019
  • 240520Z AUTO 16003KT 110V200 9999 BKN012/// OVC021/// 06/04 Q1019
  • 240450Z AUTO 16004KT 9999 -RA BKN029/// OVC046/// 05/04 Q1019
  • 240420Z AUTO 15005KT 9999 FEW043/// 04/03 Q1020
  • 240350Z AUTO VRB02KT 9999 SCT021/// 04/03 Q1020
  • 240320Z AUTO 11003KT 080V140 9999 SCT019/// 03/02 Q1021
  • 240250Z AUTO 09003KT 9999 SCT018/// 04/02 Q1021
  • 240220Z AUTO 08003KT 9999 FEW019/// 03/01 Q1021
  • 240150Z AUTO VRB02KT 9999 FEW018/// 03/02 Q1021

TAF TAF EGCK
Valid from the 24 at 06:00 until the 24 at 15:00 UTC


240458Z 2406/2415 VRB04KT 9999 SCT030
PROB30
TEMPO 2406/2408 6000 SHRA BKN009



MET'MAP, your aeronautical weather chart ! - Copyright ORBIFLY December 2007 - Disclaimer

ORBIFLY MET'MAP TEAM :

Programming & Development : Alexandra Zaïnal
Original concept : Baudouin d'Aumeries
Technical & hardware support : Manuel Goepfert
Assistance : Marc-Olivier Méhu




SOURCES & CREDITS :

   NOAA